Akron Fulton International Airport
KAKR : now visible

Airfield :











YOU CAN JOIN US ON...

 
LOGIN :

Register | Disclaimer

   EN    FR    IT 

 









Legend :    VFR   Marginal VFR   IFR   Intensive IFR   Very Intensive IFR
Visi :
Ceiling :
>= 8 km
>= 3000ft
5 to 8 km
1000 to 3000 ft
1500m to 5 km
500 to 1000 ft
800 to 1500m
200 to 500 ft
< 800m
< 200 ft
Symbols :   Thunderstorms  Fog  Heavy snow  Heavy precipitations  Wind > 20 kt







- Airport Elevation : 1067 ft


KAKR - Akron Fulton International

CURRENT METAR :
  • 212054Z AUTO 25009KT 10SM CLR 31/18 A3015 RMK AO2 SLP202 T03060183 58009 $

EXPIRED METARs :
  • 211954Z AUTO 25010KT 10SM FEW048 FEW075 BKN120 32/17 A3016 RMK AO2 SLP204 T03170172 $
  • 211854Z AUTO 26009KT 10SM CLR 31/18 A3018 RMK AO2 SLP210 T03060183 $

TAF N/A
No reported NOTAMs for that airfield.



MET'MAP, your aeronautical weather chart ! - Copyright ORBIFLY December 2007 - Disclaimer

ORBIFLY MET'MAP TEAM :

Programming & Development : Alexandra Zaïnal
Concept & Development : Baudouin d'Aumeries
Co-Development & Prog : Marc-Olivier Méhu
Technical & hardware support : Manuel Goepfert

Contact : metmap@orbifly.com




SOURCES & CREDITS :

   NOAA       Earth
Advisory